Dallas-Fort Worth International Airport (DFW/KDFW)




Flight Aircraft Arriving
CPX2297 B744
B763
KSDF - Louisville International Airport-Standiford Field
United StatesKentucky Louisville, Kentucky
Flight Aircraft Departing
CPX2294 B744
B763
KSDF - Louisville International Airport-Standiford Field
United StatesKentucky Louisville, Kentucky
Airport Information
Location: Dallas, US
Coordinates: 32.8972 / -97.0377
Elevation:
Time Offset:
Local Time:
UTC Time:
Jet A Price: $0.79/lbs

Current Weather
METAR: KDFW 281853Z 29014KT 10SM BKN007 OVC012 06/04 A2990 RMK AO2 SLP125 T00560044 /
TAF: KDFW 281738Z 2818/2924 30012KT 5SM BR OVC008 FM282100 29013KT P6SM BKN025 FM282300 30011KT P6SM FEW050 FM291100 29016G26KT P6SM OVC015 FM291800 31019G29KT P6SM OVC025 FM292100 33015G25KT P6SM SCT025

Recent Arrivals
Date Flight Type Depart
10/12/2020 CPX2294 B763 Louisville International Airport-Standiford Field (KSDF)
Recent Departures

Warning: Invalid argument supplied for foreach() in /var/www/capitollogistics/lib/skins/urban/hub/aptview.php on line 268
Date Flight Type Arrive